Latest Weather Observations for Nowra

IDN60901

Issued at 6:02 pm EDT Wednesday 28 February 2024 (issued every 10 minutes, with the page automatically refreshed every 10 minutes)

About weather observations | Map of Canberra area stations | Latest observations for Canberra area | Other Formats
Station Details ID: 068072 Name: NOWRA RAN AIR STATION AWS Lat: -34.95 Lon: 150.54 Height: 109.0 m
Data from the previous 72 hours. | See also: Recent months at Nowra
Date/Time
EDT
Temp
°C
App
Temp
°C
Dew
Point
°C
Rel
Hum
%
Delta-T
°C
Wind Press
QNH
hPa
Press
MSL
hPa
Rain since
9am
mm
Dir  Spd
km/h
Gust
km/h
Spd
kts
Gust
kts
28/05:30pm 27.7 28.1 21.7 70 4.0 NE 22 30 12 16 1014.3 1013.9 0.0
28/05:00pm 28.2 28.2 21.7 68 4.4 NE 24 32 13 17 1014.0 1013.6 0.0
28/04:30pm 29.1 29.2 21.8 64 4.9 NE 24 30 13 16 1014.2 1013.8 0.0
28/04:00pm 29.6 30.2 22.1 64 5.1 NE 22 30 12 16 1014.5 1014.1 0.0
28/03:30pm 29.4 29.0 21.6 63 5.3 NE 26 32 14 17 1014.6 1014.2 0.0
28/03:00pm 29.9 30.7 20.7 57 6.1 NNE 17 22 9 12 1015.0 1014.6 0.0
28/02:30pm 29.8 30.2 19.8 55 6.6 NNE 17 24 9 13 1015.4 1015.0 0.0
28/02:00pm 29.5 30.4 19.2 54 6.7 NNE 13 22 7 12 1015.8 1015.4 0.0
28/01:30pm 28.7 29.1 19.9 59 5.8 N 17 22 9 12 1016.2 1015.8 0.0
28/01:00pm 28.6 28.6 19.0 56 6.2 N 17 24 9 13 1016.4 1016.0 0.0
28/12:30pm 28.2 28.3 19.2 58 5.8 NNE 17 22 9 12 1016.9 1016.5 0.0
28/12:00pm 27.3 27.9 19.4 62 5.1 NNE 15 20 8 11 1017.3 1016.9 0.0
28/11:30am 27.0 27.1 19.1 62 5.1 N 17 22 9 12 1017.7 1017.3 0.0
28/11:00am 26.2 26.4 18.6 63 4.9 NNE 15 20 8 11 1018.1 1017.7 0.0
28/10:30am 25.9 26.3 19.1 66 4.4 N 15 22 8 12 1018.4 1018.0 0.0
28/10:00am 25.6 27.3 20.2 72 3.5 NNE 11 17 6 9 1018.5 1018.1 0.0
28/09:30am 24.4 26.0 19.2 73 3.3 NNE 9 11 5 6 1018.6 1018.2 0.0
28/09:00am 23.2 25.9 20.3 84 1.9 N 6 7 3 4 1018.6 1018.2 0.0
28/08:30am 21.3 25.7 21.3 100 0.0 CALM 0 0 0 0 1018.5 1018.1 0.0
28/08:00am 19.2 22.5 19.2 100 0.0 CALM 0 0 0 0 1018.5 1018.1 0.0
28/07:30am 17.1 19.5 17.1 100 0.0 CALM 0 0 0 0 1018.5 1018.1 0.0
28/07:00am 16.2 18.3 16.2 100 0.0 CALM 0 0 0 0 1018.1 1017.7 0.0
28/06:30am 16.1 18.1 16.1 100 0.0 CALM 0 0 0 0 1017.7 1017.3 0.0
28/06:00am 16.1 18.1 16.1 100 0.0 CALM 0 0 0 0 1017.5 1017.1 0.0
28/05:30am 16.1 18.1 16.1 100 0.0 CALM 0 0 0 0 1017.3 1016.9 0.0
28/05:00am 16.4 18.6 16.4 100 0.0 CALM 0 0 0 0 1017.2 1016.8 0.0
28/04:30am 16.1 18.1 16.1 100 0.0 CALM 0 0 0 0 1017.4 1017.0 0.0
28/04:00am 16.4 18.6 16.4 100 0.0 CALM 0 0 0 0 1017.4 1017.0 0.0
28/03:30am 16.5 17.4 16.5 100 0.0 NE 7 7 4 4 1017.6 1017.2 0.0
28/03:00am 16.6 17.7 16.6 100 0.0 NE 6 7 3 4 1017.7 1017.3 0.0
28/02:30am 17.1 18.4 17.1 100 0.0 NE 6 7 3 4 1017.8 1017.4 0.0
28/02:00am 18.4 20.6 18.4 100 0.0 NE 4 7 2 4 1018.0 1017.6 0.0
28/01:30am 19.3 22.3 19.3 100 0.0 NE 2 4 1 2 1018.4 1018.0 0.0
28/01:00am 19.2 21.2 19.2 100 0.0 NE 7 9 4 5 1018.7 1018.3 0.0
28/12:30am 18.8 22.0 18.8 100 0.0 CALM 0 0 0 0 1018.8 1018.4 0.0
28/12:00am 18.3 21.2 18.3 100 0.0 CALM 0 0 0 0 1018.9 1018.5 0.0
 
Date/Time
EDT
Temp
°C
App
Temp
°C
Dew
Point
°C
Rel
Hum
%
Delta-T
°C
Wind Press
QNH
hPa
Press
MSL
hPa
Rain since
9am
mm
Dir  Spd
km/h
Gust
km/h
Spd
kts
Gust
kts
27/11:30pm 20.0 23.1 18.7 92 0.8 CALM 0 0 0 0 1018.9 1018.5 0.0
27/11:00pm 20.5 22.7 19.3 93 0.8 NE 6 7 3 4 1019.2 1018.8 0.0
27/10:30pm 20.6 22.4 19.6 94 0.6 NE 9 11 5 6 1019.3 1018.9 0.0
27/10:00pm 20.5 22.7 19.7 95 0.5 NE 7 7 4 4 1019.4 1019.0 0.0
27/09:30pm 20.6 22.7 19.4 93 0.8 NE 7 7 4 4 1019.4 1019.0 0.0
27/09:00pm 20.6 21.9 19.4 93 0.8 NE 11 13 6 7 1019.2 1018.8 0.0
27/08:30pm 20.6 21.8 19.1 91 0.9 NE 11 13 6 7 1018.9 1018.5 0.0
27/08:00pm 20.9 20.8 18.8 88 1.3 NE 17 20 9 11 1018.5 1018.1 0.0
27/07:30pm 20.9 21.2 18.7 87 1.4 NNE 15 19 8 10 1018.2 1017.8 0.0
27/07:00pm 21.1 21.5 18.9 87 1.4 NE 15 20 8 11 1018.1 1017.7 0.0
27/06:30pm 21.3 21.5 18.5 84 1.8 NE 15 20 8 11 1018.0 1017.6 0.0
27/06:00pm 21.4 21.0 18.0 81 2.1 NE 17 22 9 12 1017.7 1017.3 0.0
27/05:30pm 21.8 21.8 18.2 80 2.3 ENE 15 20 8 11 1017.9 1017.5 0.0
27/05:00pm 21.5 21.7 17.7 79 2.4 NE 13 17 7 9 1018.1 1017.7 0.0
27/04:30pm 21.5 21.8 17.9 80 2.2 NE 13 15 7 8 1018.2 1017.8 0.0
27/04:00pm 21.4 21.3 17.8 80 2.2 ENE 15 20 8 11 1018.3 1017.9 0.0
27/03:30pm 21.3 21.4 18.3 83 1.9 NE 15 20 8 11 1018.6 1018.2 0.0
27/03:20pm 21.1 21.3 17.7 81 2.1 NE 13 20 7 11 1018.6 1018.2 0.0
27/03:00pm 21.2 21.0 17.6 80 2.2 ENE 15 20 8 11 1018.6 1018.2 0.0
27/02:30pm 21.2 21.2 18.0 82 2.0 E 15 19 8 10 1018.8 1018.4 0.0
27/02:00pm 20.7 21.1 18.1 85 1.6 ENE 13 19 7 10 1019.1 1018.7 0.0
27/01:36pm 20.3 21.6 19.3 94 0.6 NE 11 13 6 7 1019.1 1018.7 0.0
27/01:30pm 19.9 20.9 19.4 97 0.3 NE 13 15 7 8 1019.2 1018.8 0.0
27/01:27pm 19.9 21.0 19.7 99 0.1 NE 13 15 7 8 1019.2 1018.8 0.0
27/01:15pm 19.7 20.4 19.7 100 0.0 NE 15 19 8 10 1019.3 1018.9 0.0
27/01:00pm 20.3 21.8 19.8 97 0.3 ESE 11 17 6 9 1019.3 1018.9 0.0
27/12:30pm 20.0 21.9 19.8 99 0.1 E 9 15 5 8 1019.5 1019.1 0.0
27/12:00pm 20.0 22.3 19.8 99 0.1 E 7 11 4 6 1019.8 1019.4 0.0
27/11:30am 19.8 22.3 19.8 100 0.0 ESE 6 9 3 5 1019.8 1019.4 0.0
27/11:00am 19.2 21.4 19.2 100 0.0 SE 6 7 3 4 1020.0 1019.6 0.0
27/10:30am 19.0 21.5 19.0 100 0.0 ESE 4 7 2 4 1020.1 1019.7 0.0
27/10:00am 19.0 21.1 19.0 100 0.0 S 6 7 3 4 1020.1 1019.7 0.0
27/09:30am 18.5 20.4 18.5 100 0.0 S 6 7 3 4 1020.1 1019.7 0.0
27/09:05am 18.3 21.2 18.3 100 0.0 CALM 0 6 0 3 1020.1 1019.7 0.0
27/09:00am 18.0 20.1 18.0 100 0.0 SE 4 7 2 4 1020.1 1019.7 0.0
27/08:30am 17.9 20.3 17.9 100 0.0 SSE 2 7 1 4 1020.0 1019.6 0.0
27/08:13am 17.7 19.1 17.7 100 0.0 SSW 7 9 4 5 1020.0 1019.6 0.0
27/08:00am 17.6 18.5 17.6 100 0.0 S 9 13 5 7 1019.9 1019.5 0.0
27/07:39am 17.6 18.5 17.6 100 0.0 SSE 9 13 5 7 1019.6 1019.2 0.0
27/07:30am 17.6 18.9 17.6 100 0.0 SSE 7 11 4 6 1019.5 1019.1 0.0
27/07:00am 17.6 18.9 17.6 100 0.0 SSE 7 11 4 6 1019.4 1019.0 0.0
27/06:30am 17.6 18.2 17.6 100 0.0 S 11 15 6 8 1019.1 1018.7 0.0
27/06:22am 17.6 17.8 17.6 100 0.0 S 13 15 7 8 1019.2 1018.8 0.0
27/06:00am 17.6 18.2 17.6 100 0.0 S 11 15 6 8 1018.8 1018.4 0.0
27/05:30am 17.7 17.9 17.7 100 0.0 S 13 15 7 8 1018.7 1018.3 0.0
27/05:00am 17.7 18.7 17.7 100 0.0 SSE 9 11 5 6 1018.6 1018.2 0.0
27/04:30am 17.7 18.7 17.7 100 0.0 S 9 13 5 7 1018.5 1018.1 0.0
27/04:00am 17.9 19.3 17.9 100 0.0 SSE 7 9 4 5 1018.7 1018.3 0.0
27/03:52am 17.9 19.3 17.9 100 0.0 SSE 7 11 4 6 1018.7 1018.3 0.0
27/03:30am 17.8 18.4 17.8 100 0.0 S 11 15 6 8 1018.7 1018.3 0.0
27/03:00am 17.8 18.7 17.6 99 0.1 SSE 9 13 5 7 1018.8 1018.4 0.0
27/02:30am 18.3 21.1 18.0 98 0.2 CALM 0 0 0 0 1019.0 1018.6 0.0
27/02:00am 18.5 20.1 18.2 98 0.2 SSW 7 11 4 6 1019.0 1018.6 0.0
27/01:30am 18.5 19.2 18.0 97 0.3 SW 11 13 6 7 1019.9 1019.5 0.0
27/01:00am 18.6 19.7 18.1 97 0.3 SW 9 11 5 6 1019.8 1019.4 0.0
27/12:30am 18.8 21.1 17.6 93 0.7 SSW 2 15 1 8 1020.0 1019.6 0.0
27/12:00am 18.9 21.2 17.7 93 0.7 S 2 7 1 4 1019.9 1019.5 0.0
 
Date/Time
EDT
Temp
°C
App
Temp
°C
Dew
Point
°C
Rel
Hum
%
Delta-T
°C
Wind Press
QNH
hPa
Press
MSL
hPa
Rain since
9am
mm
Dir  Spd
km/h
Gust
km/h
Spd
kts
Gust
kts
26/11:30pm 19.0 20.4 17.7 92 0.8 S 7 11 4 6 1020.2 1019.8 0.0
26/11:00pm 19.1 19.5 17.2 89 1.2 SSE 11 17 6 9 1020.1 1019.7 0.0
26/10:30pm 19.3 19.1 16.7 85 1.6 S 13 15 7 8 1020.3 1019.9 0.0
26/10:00pm 19.5 19.5 16.2 81 2.0 SSE 11 20 6 11 1020.0 1019.6 0.0
26/09:30pm 19.6 18.7 15.9 79 2.2 SSE 15 20 8 11 1019.9 1019.5 0.0
26/09:00pm 19.7 18.6 16.3 81 2.0 SE 17 26 9 14 1019.6 1019.2 0.0
26/08:30pm 19.9 18.6 16.9 83 1.8 SE 19 24 10 13 1019.1 1018.7 0.0
26/08:21pm 19.9 19.5 17.1 84 1.7 SE 15 24 8 13 1018.9 1018.5 0.0
26/08:00pm 20.1 18.9 17.5 85 1.6 SSE 20 28 11 15 1018.5 1018.1 0.0
26/07:30pm 20.2 19.5 18.3 89 1.2 SE 19 33 10 18 1018.1 1017.7 0.0
26/07:14pm 20.3 20.9 18.6 90 1.1 SSE 13 20 7 11 1017.9 1017.5 0.0
26/07:00pm 20.3 20.5 18.6 90 1.1 SSE 15 20 8 11 1017.8 1017.4 0.0
26/06:51pm 20.5 20.6 18.3 87 1.4 SSE 15 19 8 10 1017.7 1017.3 0.0
26/06:37pm 20.5 20.6 18.3 87 1.4 SSE 15 24 8 13 1017.6 1017.2 0.0
26/06:30pm 20.6 20.4 18.5 88 1.3 SSE 17 20 9 11 1017.6 1017.2 0.0
26/06:00pm 20.8 21.0 18.6 87 1.4 SSE 15 19 8 10 1017.3 1016.9 0.0
26/05:30pm 20.9 20.8 18.7 87 1.4 SSE 17 24 9 13 1017.1 1016.7 0.0
26/05:00pm 21.6 21.2 19.0 85 1.6 SSE 19 30 10 16 1016.9 1016.5 0.0
26/04:30pm 22.6 22.2 19.4 82 2.0 SSE 20 28 11 15 1016.7 1016.3 0.0
26/04:00pm 22.3 22.1 19.7 85 1.7 SSE 20 28 11 15 1016.6 1016.2 0.0
26/03:30pm 21.6 21.9 20.4 93 0.8 SSE 19 26 10 14 1016.9 1016.5 0.0
26/03:00pm 21.5 22.0 20.8 96 0.5 SSE 19 26 10 14 1016.9 1016.5 0.0
26/02:59pm 21.4 21.8 20.6 95 0.5 SSE 19 26 10 14 1016.9 1016.5 0.0
26/02:30pm 21.9 21.1 19.3 85 1.7 SSE 22 28 12 15 1016.7 1016.3 0.0
26/02:00pm 22.5 22.2 19.5 83 1.9 SSE 20 28 11 15 1016.7 1016.3 0.0
26/01:40pm 23.6 22.3 19.9 80 2.4 SE 26 35 14 19 1016.6 1016.2 0.0
26/01:30pm 23.4 22.2 19.3 78 2.6 SSE 24 32 13 17 1016.5 1016.1 0.0
26/01:00pm 23.4 23.6 20.2 82 2.1 S 19 22 10 12 1016.6 1016.2 0.0
26/12:30pm 22.9 22.5 18.9 78 2.5 S 19 28 10 15 1016.6 1016.2 0.0
26/12:00pm 23.3 22.8 19.2 78 2.6 S 20 28 11 15 1016.5 1016.1 0.0
26/11:30am 23.7 24.0 19.6 78 2.6 SSW 17 22 9 12 1016.5 1016.1 0.0
26/11:13am 22.6 23.7 19.6 83 1.9 SSW 13 20 7 11 1016.5 1016.1 0.0
26/11:00am 22.0 21.8 19.4 85 1.7 SSW 19 26 10 14 1016.4 1016.0 0.0
26/10:30am 21.2 20.9 19.1 88 1.3 S 19 24 10 13 1016.2 1015.8 0.0
26/10:00am 21.0 20.8 18.6 86 1.5 S 17 24 9 13 1015.8 1015.4 0.0
26/09:36am 20.7 21.1 19.0 90 1.1 S 15 24 8 13 1015.3 1014.9 0.0
26/09:30am 20.6 21.8 19.8 95 0.5 S 13 19 7 10 1015.1 1014.7 0.0
26/09:00am 20.8 20.8 20.1 96 0.4 S 20 33 11 18 1014.5 1014.1 0.0
26/08:30am 20.7 22.4 20.2 97 0.3 WNW 11 17 6 9 1013.7 1013.3 0.0
26/08:00am 19.3 20.6 19.3 100 0.0 NW 11 15 6 8 1013.2 1012.7 0.0
26/07:30am 18.6 19.6 18.6 100 0.0 WNW 11 13 6 7 1013.3 1012.8 0.0
26/07:00am 17.9 18.6 17.9 100 0.0 WNW 11 15 6 8 1013.1 1012.6 0.0
26/06:30am 17.7 18.3 17.7 100 0.0 WNW 11 13 6 7 1012.8 1012.3 0.0
26/06:00am 17.9 18.2 17.9 100 0.0 W 13 15 7 8 1012.3 1011.9 0.0
26/05:30am 18.1 18.9 18.1 100 0.0 W 11 13 6 7 1012.0 1011.6 0.0
26/05:00am 16.7 17.6 16.7 100 0.0 SW 7 9 4 5 1011.8 1011.4 0.0
26/04:30am 18.2 19.8 18.2 100 0.0 SW 7 9 4 5 1011.8 1011.4 0.0
26/04:00am 18.6 19.6 18.6 100 0.0 NNW 11 17 6 9 1011.7 1011.3 0.0
26/03:30am 18.5 19.4 18.5 100 0.0 NW 11 13 6 7 1011.9 1011.5 0.0
26/03:00am 18.2 19.4 18.2 100 0.0 WNW 9 11 5 6 1012.1 1011.7 0.0
26/02:30am 17.8 19.4 17.8 100 0.0 NNW 6 9 3 5 1012.3 1011.9 0.0
26/02:00am 17.6 19.1 17.6 100 0.0 NNW 6 9 3 5 1012.6 1012.2 0.0
26/01:30am 18.2 19.4 18.2 100 0.0 WNW 9 11 5 6 1013.1 1012.6 0.0
26/01:00am 18.1 19.8 18.1 100 0.0 WNW 6 9 3 5 1013.3 1012.8 0.0
26/12:30am 17.9 20.3 17.9 100 0.0 NW 2 9 1 5 1013.6 1013.1 0.0
26/12:00am 18.5 19.8 18.5 100 0.0 NW 9 15 5 8 1013.7 1013.3 0.0
 
Date/Time
EDT
Temp
°C
App
Temp
°C
Dew
Point
°C
Rel
Hum
%
Delta-T
°C
Wind Press
QNH
hPa
Press
MSL
hPa
Rain since
9am
mm
Dir  Spd
km/h
Gust
km/h
Spd
kts
Gust
kts
25/11:30pm 18.7 20.1 18.7 100 0.0 WSW 9 11 5 6 1013.9 1013.5 0.0
25/11:00pm 18.4 19.7 18.4 100 0.0 SW 9 11 5 6 1014.2 1013.8 0.0
25/10:30pm 18.5 19.4 18.5 100 0.0 SW 11 13 6 7 1014.4 1014.0 0.0
25/10:00pm 18.7 19.3 18.7 100 0.0 SW 13 15 7 8 1014.4 1014.0 0.0
25/09:30pm 18.7 20.1 18.7 100 0.0 SSW 9 13 5 7 1014.3 1013.9 0.0
25/09:00pm 19.6 20.9 19.4 99 0.1 S 11 13 6 7 1014.2 1013.8 0.0
25/08:30pm 20.3 21.4 19.6 96 0.4 S 13 15 7 8 1014.0 1013.6 0.0
25/08:00pm 20.8 21.6 19.1 90 1.1 S 13 15 7 8 1013.6 1013.1 0.0
25/07:30pm 22.1 23.0 18.3 79 2.4 SE 11 13 6 7 1013.3 1012.8 0.0
25/07:00pm 23.2 23.4 17.7 71 3.4 ESE 13 20 7 11 1013.0 1012.5 0.0
25/06:30pm 23.9 24.3 18.1 70 3.7 ESE 13 17 7 9 1013.0 1012.5 0.0

Latest Capital City Observations: Canberra | Sydney | Melbourne | Brisbane | Adelaide | Perth | Hobart | Darwin

Other formats

Comma delimited format used in spreadsheet applications
http://www.bom.gov.au/fwo/IDN60903/IDN60903.94750.axf

JavaScript Object Notation format (JSON) in row-major order
http://www.bom.gov.au/fwo/IDN60903/IDN60903.94750.json

Data quality

Most of these data are generated automatically and are frequently updated. Quality checks on data are not normally performed. It is possible for incorrect values to appear. Refer to information at About Latest Weather Observations and please check the disclaimer before using these data.